Time;durP1;ratioP1;P1;durP2;ratioP2;P2;SDS_P1;SDS_P2;PMS_P1;PMS_P2;Temp;Humidity;BMP_temperature;BMP_pressure;BME280_temperature;BME280_humidity;BME280_pressure;Samples;Min_cycle;Max_cycle;Signal;HPM_P1;HPM_P2
2022/08/09 00:00:01;;;;;;;;;;;;;;;18.64;44.09;97012.75;5044037;28;19965;-74
2022/08/09 00:02:27;;;;;;;;;;;;;;;18.63;43.77;97011.16;5046116;28;19959;-74
2022/08/09 00:04:53;;;;;;;;;;;;;;;18.61;43.66;97001.84;5032027;28;19965;-74
2022/08/09 00:07:19;;;;;;;;;;;;;;;18.60;43.29;96997.59;5044309;28;20324;-75
2022/08/09 00:09:45;;;;;;;;;;;;;;;18.57;43.59;97009.53;5046207;28;19957;-74
2022/08/09 00:12:11;;;;;;;;;;;;;;;18.55;43.73;97011.63;5044562;28;19995;-74
2022/08/09 00:14:36;;;;;;;;;;;;;;;18.53;44.36;97002.31;5043895;28;19952;-74
2022/08/09 00:17:02;;;;;;;;;;;;;;;18.50;44.52;96998.34;5045176;28;19953;-74
2022/08/09 00:19:28;;;;;;;;;;;;;;;18.49;44.65;97001.22;5039354;28;19958;-74
2022/08/09 00:21:54;;;;;;;;;;;;;;;18.45;44.52;97001.72;5042346;28;20370;-75
2022/08/09 00:24:20;;;;;;;;;;;;;;;18.45;44.87;97003.59;5047953;28;19965;-74
2022/08/09 00:26:47;;;;;;;;;;;;;;;18.41;44.62;96997.97;5046471;28;20412;-74
2022/08/09 00:29:13;;;;;;;;;;;;;;;18.37;44.80;97006.72;5048505;28;20442;-75
2022/08/09 00:31:39;;;;;;;;;;;;;;;18.31;45.24;97005.06;5044473;28;20001;-73
2022/08/09 00:34:05;;;;;;;;;;;;;;;18.29;45.75;97009.81;5041219;28;20356;-73
2022/08/09 00:36:31;;;;;;;;;;;;;;;18.26;45.71;97008.47;5044595;28;19956;-74
2022/08/09 00:38:57;;;;;;;;;;;;;;;18.22;45.54;97002.06;5047343;28;20053;-74
2022/08/09 00:41:23;;;;;;;;;;;;;;;18.20;45.42;97012.94;5048170;28;19955;-74
2022/08/09 00:43:49;;;;;;;;;;;;;;;18.16;45.93;97005.75;5043846;28;20438;-74
2022/08/09 00:46:15;;;;;;;;;;;;;;;18.12;45.89;97013.44;5041406;28;20017;-74
2022/08/09 00:48:41;;;;;;;;;;;;;;;18.10;46.28;97006.75;5043303;28;19965;-74
2022/08/09 00:51:07;;;;;;;;;;;;;;;18.07;46.38;97007.25;5062455;28;20317;-74
2022/08/09 00:53:37;;;;;;;;;;;;;;;18.02;46.07;97000.06;5043690;28;20004;-73
2022/08/09 00:56:03;;;;;;;;;;;;;;;17.97;46.21;97002.66;5041058;28;19966;-73
2022/08/09 00:58:30;;;;;;;;;;;;;;;17.93;46.98;97010.34;5046431;28;19959;-74
2022/08/09 01:00:56;;;;;;;;;;;;;;;17.90;47.27;97012.69;5044661;28;19954;-75
2022/08/09 01:03:34;;;;;;;;;;;;;;;17.88;47.30;97014.78;5043178;28;19965;-74
2022/08/09 01:06:11;;;;;;;;;;;;;;;17.86;47.25;97017.69;5044103;28;19968;-74
2022/08/09 01:09:00;;;;;;;;;;;;;;;17.82;47.10;97012.06;5044863;28;19948;-74
2022/08/09 01:11:32;;;;;;;;;;;;;;;17.79;47.23;97011.75;5029544;28;19957;-74
2022/08/09 01:14:00;;;;;;;;;;;;;;;17.76;47.54;97012.25;5049103;28;19965;-74
2022/08/09 01:16:30;;;;;;;;;;;;;;;17.73;47.87;97018.06;5042529;28;19959;-74
2022/08/09 01:18:59;;;;;;;;;;;;;;;17.69;47.65;97014.31;5039835;28;19955;-74
2022/08/09 01:21:31;;;;;;;;;;;;;;;17.65;47.73;97001.50;5041058;28;19976;-74
2022/08/09 01:24:16;;;;;;;;;;;;;;;17.62;47.71;97004.69;5048959;28;20423;-74
2022/08/09 01:27:00;;;;;;;;;;;;;;;17.58;47.86;97003.56;5048444;28;20018;-75
2022/08/09 01:29:31;;;;;;;;;;;;;;;17.54;47.90;97013.06;5042377;28;19992;-75
2022/08/09 01:31:59;;;;;;;;;;;;;;;17.53;48.25;97019.41;5040454;28;20410;-74
2022/08/09 01:34:27;;;;;;;;;;;;;;;17.49;48.40;97021.00;5043106;28;19979;-74
2022/08/09 01:36:55;;;;;;;;;;;;;;;17.45;48.04;97010.06;5041101;28;19960;-74
2022/08/09 01:39:21;;;;;;;;;;;;;;;17.41;48.28;97014.25;5048742;28;19972;-74
2022/08/09 01:41:47;;;;;;;;;;;;;;;17.39;48.34;97018.22;5043289;28;19964;-74
2022/08/09 01:44:15;;;;;;;;;;;;;;;17.38;48.12;97022.69;5038861;28;19956;-74
2022/08/09 01:46:41;;;;;;;;;;;;;;;17.39;48.04;97020.88;5045097;28;19972;-74
2022/08/09 01:49:18;;;;;;;;;;;;;;;17.41;48.40;97024.88;5045118;28;19958;-74
2022/08/09 01:51:45;;;;;;;;;;;;;;;17.41;47.89;97016.91;5043572;28;19948;-75
2022/08/09 01:54:12;;;;;;;;;;;;;;;17.40;48.34;97025.09;5037195;28;19972;-75
2022/08/09 01:56:39;;;;;;;;;;;;;;;17.40;48.95;97022.44;5035476;28;19957;-74
2022/08/09 01:59:08;;;;;;;;;;;;;;;17.38;48.58;97022.69;5042292;28;19963;-74
2022/08/09 02:01:34;;;;;;;;;;;;;;;17.36;48.88;97029.28;5042272;28;19962;-74
2022/08/09 02:04:01;;;;;;;;;;;;;;;17.35;48.75;97035.66;5040603;28;19964;-74
2022/08/09 02:09:14;;;;;;;;;;;;;;;17.32;48.78;97034.28;5036647;28;19957;-74
2022/08/09 02:11:40;;;;;;;;;;;;;;;17.28;48.58;97038.47;5042170;28;19962;-74
2022/08/09 02:14:06;;;;;;;;;;;;;;;17.24;49.40;97037.38;5043167;28;19959;-75
2022/08/09 02:16:34;;;;;;;;;;;;;;;17.20;49.46;97045.03;5032721;28;19964;-74
2022/08/09 02:19:00;;;;;;;;;;;;;;;17.20;50.00;97050.31;5033711;28;19985;-74
2022/08/09 02:21:28;;;;;;;;;;;;;;;17.17;50.03;97047.34;5046212;28;19954;-74
2022/08/09 02:23:56;;;;;;;;;;;;;;;17.16;49.48;97051.84;5041612;28;20466;-74
2022/08/09 02:26:23;;;;;;;;;;;;;;;17.14;49.55;97046.00;5034009;28;19977;-74
2022/08/09 02:28:50;;;;;;;;;;;;;;;17.12;49.73;97042.00;5045578;28;19989;-74
2022/08/09 02:31:36;;;;;;;;;;;;;;;17.11;49.29;97035.88;5044542;28;19954;-74
2022/08/09 02:34:07;;;;;;;;;;;;;;;17.11;49.09;97038.53;5037777;28;19973;-74
2022/08/09 02:36:34;;;;;;;;;;;;;;;17.11;49.12;97035.88;5045791;28;20412;-74
2022/08/09 02:39:03;;;;;;;;;;;;;;;17.10;48.66;97039.59;5044725;28;19971;-73
2022/08/09 02:41:43;;;;;;;;;;;;;;;17.09;48.80;97040.59;5037389;28;19962;-75
2022/08/09 02:44:13;;;;;;;;;;;;;;;17.04;48.81;97041.34;5041949;28;19962;-75
2022/08/09 02:46:41;;;;;;;;;;;;;;;17.02;49.36;97050.59;5061693;28;19963;-75
2022/08/09 02:49:09;;;;;;;;;;;;;;;16.98;49.08;97050.28;5041739;28;19955;-75
2022/08/09 02:51:37;;;;;;;;;;;;;;;16.93;49.34;97047.56;5039080;28;20311;-75
2022/08/09 02:54:04;;;;;;;;;;;;;;;16.87;49.29;97050.38;5042225;28;19957;-74
2022/08/09 02:56:31;;;;;;;;;;;;;;;16.80;49.09;97047.88;5044818;28;19958;-74
2022/08/09 02:58:58;;;;;;;;;;;;;;;16.73;49.58;97052.53;5049565;28;19957;-75
2022/08/09 03:01:24;;;;;;;;;;;;;;;16.65;49.40;97043.13;5048960;28;19981;-75
2022/08/09 03:03:52;;;;;;;;;;;;;;;16.60;49.72;97043.88;5045016;28;19961;-75
2022/08/09 03:06:20;;;;;;;;;;;;;;;16.53;50.28;97045.09;5044654;28;19981;-76
2022/08/09 03:08:47;;;;;;;;;;;;;;;16.49;50.37;97046.63;5026828;28;19955;-75
2022/08/09 03:11:17;;;;;;;;;;;;;;;16.42;50.44;97044.09;5047308;28;19962;-75
2022/08/09 03:13:44;;;;;;;;;;;;;;;16.36;50.43;97039.78;5048199;28;19959;-75
2022/08/09 03:16:10;;;;;;;;;;;;;;;16.31;50.85;97040.50;5045649;28;19955;-75
2022/08/09 03:18:36;;;;;;;;;;;;;;;16.27;51.21;97049.94;5041070;28;20024;-75
2022/08/09 03:21:04;;;;;;;;;;;;;;;16.23;50.81;97057.59;5051991;28;19961;-75
2022/08/09 03:23:30;;;;;;;;;;;;;;;16.20;51.13;97051.94;5049500;28;20420;-75
2022/08/09 03:25:57;;;;;;;;;;;;;;;16.16;51.26;97048.19;5027310;28;20406;-75
2022/08/09 03:28:24;;;;;;;;;;;;;;;16.12;51.25;97052.34;5044230;28;19981;-75
2022/08/09 03:30:51;;;;;;;;;;;;;;;16.10;51.10;97052.56;5047836;28;19965;-74
2022/08/09 03:33:18;;;;;;;;;;;;;;;16.08;51.35;97053.84;5051073;28;19971;-75
2022/08/09 03:35:44;;;;;;;;;;;;;;;16.07;49.95;97052.25;5045001;28;19963;-75
2022/08/09 03:38:09;;;;;;;;;;;;;;;16.03;50.97;97049.28;5043232;28;19961;-75
2022/08/09 03:40:36;;;;;;;;;;;;;;;16.02;51.43;97058.25;5050040;28;19956;-74
2022/08/09 03:43:01;;;;;;;;;;;;;;;15.99;51.93;97061.38;5047406;28;20334;-75
2022/08/09 03:45:27;;;;;;;;;;;;;;;15.96;52.00;97060.00;5043408;28;20053;-75
2022/08/09 03:47:53;;;;;;;;;;;;;;;15.92;51.51;97058.88;5048390;28;20016;-74
2022/08/09 03:50:19;;;;;;;;;;;;;;;15.89;51.72;97053.25;5051283;28;20047;-75
2022/08/09 03:52:46;;;;;;;;;;;;;;;15.87;50.68;97050.03;5046228;28;19963;-75
2022/08/09 03:55:12;;;;;;;;;;;;;;;15.85;51.58;97057.41;5042637;28;19963;-75
2022/08/09 03:57:38;;;;;;;;;;;;;;;15.85;51.36;97055.56;5045073;28;19962;-75
2022/08/09 04:00:05;;;;;;;;;;;;;;;15.86;51.45;97057.19;5044637;28;19960;-74
2022/08/09 04:02:31;;;;;;;;;;;;;;;15.87;51.14;97066.72;5047489;28;20424;-75
2022/08/09 04:05:00;;;;;;;;;;;;;;;15.86;51.45;97059.03;5043593;28;20321;-74
2022/08/09 04:07:28;;;;;;;;;;;;;;;15.87;50.96;97065.91;5041850;28;20336;-74
2022/08/09 04:09:54;;;;;;;;;;;;;;;15.87;51.71;97064.06;5044313;28;19963;-74
2022/08/09 04:12:38;;;;;;;;;;;;;;;15.87;51.67;97071.19;5051843;28;19970;-74
2022/08/09 04:15:04;;;;;;;;;;;;;;;15.85;51.65;97074.06;5038177;28;19959;-73
2022/08/09 04:17:30;;;;;;;;;;;;;;;15.85;51.82;97073.28;5041068;28;19967;-74
2022/08/09 04:19:56;;;;;;;;;;;;;;;15.82;51.92;97083.28;5048493;28;20014;-75
2022/08/09 04:22:22;;;;;;;;;;;;;;;15.78;52.17;97079.50;5047275;28;19963;-74
2022/08/09 04:24:48;;;;;;;;;;;;;;;15.75;52.46;97079.19;5042121;28;20014;-75
2022/08/09 04:27:14;;;;;;;;;;;;;;;15.71;52.74;97088.59;5041512;28;19972;-75
2022/08/09 04:29:40;;;;;;;;;;;;;;;15.68;52.72;97092.50;5044719;28;20038;-75
2022/08/09 04:32:06;;;;;;;;;;;;;;;15.64;52.74;97091.34;5044467;28;19965;-75
2022/08/09 04:34:33;;;;;;;;;;;;;;;15.63;52.59;97097.69;5046032;28;19998;-75
2022/08/09 04:36:59;;;;;;;;;;;;;;;15.59;53.09;97102.63;5043858;28;19958;-75
2022/08/09 04:39:25;;;;;;;;;;;;;;;15.57;53.24;97106.56;5041230;28;19964;-75
2022/08/09 04:41:51;;;;;;;;;;;;;;;15.56;53.45;97110.22;5045654;28;19953;-74
2022/08/09 04:44:17;;;;;;;;;;;;;;;15.55;53.82;97108.63;5052177;28;19965;-74
2022/08/09 04:46:43;;;;;;;;;;;;;;;15.56;53.93;97108.41;5045422;28;20006;-75
2022/08/09 04:49:09;;;;;;;;;;;;;;;15.61;53.63;97113.00;5045395;28;20409;-75
2022/08/09 04:51:35;;;;;;;;;;;;;;;15.66;53.44;97110.44;5047993;28;20000;-75
2022/08/09 04:54:01;;;;;;;;;;;;;;;15.71;53.58;97109.75;5044834;28;20045;-75
2022/08/09 04:56:27;;;;;;;;;;;;;;;15.79;53.51;97117.31;5041494;28;19961;-74
2022/08/09 04:58:53;;;;;;;;;;;;;;;15.89;53.63;97112.25;5044888;28;19956;-75
2022/08/09 05:01:19;;;;;;;;;;;;;;;16.10;54.50;97112.63;5045958;28;20001;-75
2022/08/09 05:03:44;;;;;;;;;;;;;;;16.40;53.01;97107.09;5044067;28;20049;-75
2022/08/09 05:06:11;;;;;;;;;;;;;;;16.66;52.75;97110.16;5041530;28;20379;-75
2022/08/09 05:08:37;;;;;;;;;;;;;;;16.89;52.04;97107.38;5047545;28;19955;-75
2022/08/09 05:11:03;;;;;;;;;;;;;;;17.07;51.40;97110.81;5041543;28;19970;-75
2022/08/09 05:13:28;;;;;;;;;;;;;;;17.24;51.68;97112.41;5042631;28;20438;-74
2022/08/09 05:15:54;;;;;;;;;;;;;;;17.42;51.34;97105.19;5045917;28;19948;-74
2022/08/09 05:18:20;;;;;;;;;;;;;;;17.56;51.00;97101.16;5041939;28;20038;-74
2022/08/09 05:20:46;;;;;;;;;;;;;;;17.73;50.37;97105.59;5042203;28;19959;-75
2022/08/09 05:23:12;;;;;;;;;;;;;;;17.92;50.99;97106.91;5044707;28;19957;-74
2022/08/09 05:25:38;;;;;;;;;;;;;;;18.14;50.77;97106.06;5049726;28;20453;-74
2022/08/09 05:28:04;;;;;;;;;;;;;;;18.40;49.80;97097.31;5039019;28;20056;-75
2022/08/09 05:30:31;;;;;;;;;;;;;;;18.68;49.16;97098.06;5044611;28;20416;-73
2022/08/09 05:32:57;;;;;;;;;;;;;;;18.97;48.58;97098.56;5048444;28;19960;-75
2022/08/09 05:35:23;;;;;;;;;;;;;;;19.29;48.19;97094.25;5042621;28;19969;-73
2022/08/09 05:37:49;;;;;;;;;;;;;;;19.57;47.17;97093.03;5039326;28;20420;-74
2022/08/09 05:40:15;;;;;;;;;;;;;;;19.81;46.54;97088.13;5044319;28;20367;-74
2022/08/09 05:42:41;;;;;;;;;;;;;;;20.07;46.53;97097.81;5044030;28;19955;-74
2022/08/09 05:45:07;;;;;;;;;;;;;;;20.38;45.96;97094.38;5043704;28;19976;-75
2022/08/09 05:47:33;;;;;;;;;;;;;;;20.64;45.60;97095.22;5044153;28;19972;-75
2022/08/09 05:49:59;;;;;;;;;;;;;;;20.97;44.89;97098.41;5046153;28;19990;-74
2022/08/09 05:52:25;;;;;;;;;;;;;;;21.32;44.32;97094.09;5037271;28;20008;-74
2022/08/09 05:54:51;;;;;;;;;;;;;;;21.63;43.57;97082.25;5042150;28;20007;-74
2022/08/09 05:57:17;;;;;;;;;;;;;;;21.95;42.97;97081.03;5046328;28;19987;-75
2022/08/09 05:59:43;;;;;;;;;;;;;;;22.17;42.79;97080.63;5045321;28;20332;-75
2022/08/09 06:02:09;;;;;;;;;;;;;;;22.32;41.94;97085.09;5034201;28;19954;-73
2022/08/09 06:04:35;;;;;;;;;;;;;;;22.33;42.01;97086.72;5046594;28;20358;-75
2022/08/09 06:07:02;;;;;;;;;;;;;;;22.38;41.45;97084.00;5044872;28;19974;-74
2022/08/09 06:09:28;;;;;;;;;;;;;;;22.52;41.46;97084.19;5055299;28;20442;-75
2022/08/09 06:11:54;;;;;;;;;;;;;;;22.78;41.61;97091.97;5042761;28;19956;-75
2022/08/09 06:14:20;;;;;;;;;;;;;;;23.04;41.14;97084.56;5043989;28;20412;-75
2022/08/09 06:16:46;;;;;;;;;;;;;;;23.25;40.98;97093.97;5044172;28;20086;-74
2022/08/09 06:19:13;;;;;;;;;;;;;;;23.38;39.41;97086.38;5043388;28;19962;-75
2022/08/09 06:21:40;;;;;;;;;;;;;;;23.43;40.35;97097.78;5045045;28;19956;-74
2022/08/09 06:24:06;;;;;;;;;;;;;;;23.51;39.14;97096.38;5043896;28;20437;-74
2022/08/09 06:26:35;;;;;;;;;;;;;;;23.57;39.74;97099.81;5043609;28;20400;-74
2022/08/09 06:29:01;;;;;;;;;;;;;;;23.67;39.40;97097.78;5044275;28;19984;-74
2022/08/09 06:31:28;;;;;;;;;;;;;;;23.82;39.78;97101.41;5044883;28;20047;-74
2022/08/09 06:33:54;;;;;;;;;;;;;;;24.00;39.57;97105.19;5044915;28;19965;-74
2022/08/09 06:36:20;;;;;;;;;;;;;;;24.08;39.73;97105.31;5047878;28;20041;-74
2022/08/09 06:38:45;;;;;;;;;;;;;;;24.13;39.75;97109.03;5046807;28;20004;-75
2022/08/09 06:41:11;;;;;;;;;;;;;;;24.17;40.19;97110.84;5044224;28;19958;-75
2022/08/09 06:43:37;;;;;;;;;;;;;;;24.21;39.64;97106.50;5046210;28;20019;-74
2022/08/09 06:46:03;;;;;;;;;;;;;;;24.28;39.67;97109.63;5045943;28;19960;-74
2022/08/09 06:48:29;;;;;;;;;;;;;;;24.37;39.30;97103.59;5047712;28;20054;-75
2022/08/09 06:50:55;;;;;;;;;;;;;;;24.37;39.33;97109.75;5042480;28;19960;-75
2022/08/09 06:53:21;;;;;;;;;;;;;;;24.37;40.06;97115.13;5045659;28;20048;-75
2022/08/09 06:55:47;;;;;;;;;;;;;;;24.47;39.51;97117.66;5053098;28;20006;-75
2022/08/09 06:58:13;;;;;;;;;;;;;;;24.65;39.35;97113.41;5043428;28;19970;-74
2022/08/09 07:00:39;;;;;;;;;;;;;;;24.74;39.32;97110.03;5044172;28;19963;-74
2022/08/09 07:03:04;;;;;;;;;;;;;;;24.81;39.11;97113.13;5051374;28;19999;-75
2022/08/09 07:05:30;;;;;;;;;;;;;;;24.90;39.02;97108.69;5052255;28;20007;-77
2022/08/09 07:07:56;;;;;;;;;;;;;;;25.03;39.04;97112.50;5043915;28;19985;-75
2022/08/09 07:10:23;;;;;;;;;;;;;;;25.16;38.33;97108.22;5043386;28;19969;-74
2022/08/09 07:12:49;;;;;;;;;;;;;;;25.18;37.65;97106.88;5044065;28;19959;-74
2022/08/09 07:15:15;;;;;;;;;;;;;;;25.09;37.94;97116.69;5051251;28;19960;-75
2022/08/09 07:17:41;;;;;;;;;;;;;;;25.08;38.69;97117.78;5049901;28;19960;-75
2022/08/09 07:20:07;;;;;;;;;;;;;;;25.16;38.41;97116.28;5048268;28;20331;-75
2022/08/09 07:22:33;;;;;;;;;;;;;;;25.29;38.48;97116.34;5040439;28;19963;-75
2022/08/09 07:24:59;;;;;;;;;;;;;;;25.40;38.27;97110.78;5045201;28;20006;-74
2022/08/09 07:27:26;;;;;;;;;;;;;;;25.31;37.22;97124.91;5048576;28;20066;-75
2022/08/09 07:29:55;;;;;;;;;;;;;;;25.31;38.29;97114.16;5047801;28;19981;-74
2022/08/09 07:32:21;;;;;;;;;;;;;;;25.42;38.54;97120.13;5050500;28;19965;-75
2022/08/09 07:34:47;;;;;;;;;;;;;;;25.57;39.04;97131.69;5042481;28;19963;-74
2022/08/09 07:37:13;;;;;;;;;;;;;;;25.67;38.80;97118.84;5046652;28;19958;-75
2022/08/09 07:39:39;;;;;;;;;;;;;;;25.76;38.02;97113.56;5041485;28;20481;-75
2022/08/09 07:42:05;;;;;;;;;;;;;;;25.88;39.07;97127.28;5047426;28;20479;-75
2022/08/09 07:44:31;;;;;;;;;;;;;;;25.97;38.23;97118.56;5047954;28;19963;-75
2022/08/09 07:46:57;;;;;;;;;;;;;;;26.08;37.60;97112.66;5044889;28;20016;-75
2022/08/09 07:49:23;;;;;;;;;;;;;;;25.95;36.39;97120.75;5045428;28;20508;-75
2022/08/09 07:51:49;;;;;;;;;;;;;;;25.72;37.75;97126.00;5046297;28;20026;-75
2022/08/09 07:54:14;;;;;;;;;;;;;;;25.71;38.27;97135.97;5052278;28;19960;-76
2022/08/09 07:56:41;;;;;;;;;;;;;;;25.66;37.21;97128.00;5042940;28;19999;-75
2022/08/09 07:59:07;;;;;;;;;;;;;;;25.78;37.07;97126.72;5044172;28;19961;-75
2022/08/09 08:01:33;;;;;;;;;;;;;;;25.92;37.42;97122.16;5049838;28;19986;-76
2022/08/09 08:03:59;;;;;;;;;;;;;;;25.97;35.78;97115.88;5051527;28;19956;-76
2022/08/09 08:06:25;;;;;;;;;;;;;;;25.98;36.32;97122.84;5040288;28;19959;-75
2022/08/09 08:08:51;;;;;;;;;;;;;;;25.99;37.36;97133.28;5042435;28;19993;-76
2022/08/09 08:11:17;;;;;;;;;;;;;;;25.92;35.84;97122.94;5039034;28;19963;-75
2022/08/09 08:13:43;;;;;;;;;;;;;;;25.92;35.76;97124.84;5044154;28;20363;-75
2022/08/09 08:16:09;;;;;;;;;;;;;;;25.97;36.45;97134.69;5047387;28;20336;-76
2022/08/09 08:18:35;;;;;;;;;;;;;;;26.15;37.30;97130.28;5045623;28;19961;-76
2022/08/09 08:21:01;;;;;;;;;;;;;;;26.20;36.27;97132.84;5046053;28;20398;-75
2022/08/09 08:23:27;;;;;;;;;;;;;;;26.32;36.79;97133.13;5049545;28;20342;-76
2022/08/09 08:25:52;;;;;;;;;;;;;;;26.54;36.72;97132.34;5045437;28;20004;-76
2022/08/09 08:28:20;;;;;;;;;;;;;;;26.70;35.27;97128.22;5045176;28;19982;-75
2022/08/09 08:30:46;;;;;;;;;;;;;;;26.86;34.80;97127.88;5042726;28;19967;-75
2022/08/09 08:33:13;;;;;;;;;;;;;;;26.93;35.46;97136.31;5047051;28;19962;-76
2022/08/09 08:35:38;;;;;;;;;;;;;;;27.00;35.04;97131.25;5045781;28;19958;-76
2022/08/09 08:38:04;;;;;;;;;;;;;;;26.95;34.97;97131.41;5043988;28;20027;-75
2022/08/09 08:40:31;;;;;;;;;;;;;;;26.67;34.23;97131.53;5043813;28;19962;-75
2022/08/09 08:42:57;;;;;;;;;;;;;;;26.46;33.39;97136.56;5042834;28;19963;-76
2022/08/09 08:45:26;;;;;;;;;;;;;;;26.55;34.96;97152.00;5043122;28;20415;-75
2022/08/09 08:47:52;;;;;;;;;;;;;;;26.72;34.88;97152.16;5051214;28;19976;-76
2022/08/09 08:50:18;;;;;;;;;;;;;;;26.91;34.06;97143.88;5046228;28;19974;-76
2022/08/09 08:52:45;;;;;;;;;;;;;;;26.85;32.92;97143.22;5038646;28;19986;-77
2022/08/09 08:55:11;;;;;;;;;;;;;;;26.84;34.25;97144.31;5048378;28;19966;-76
2022/08/09 08:57:37;;;;;;;;;;;;;;;26.84;33.18;97141.63;5045831;28;19960;-76
2022/08/09 09:00:04;;;;;;;;;;;;;;;26.78;32.75;97144.75;5039255;28;20368;-76
2022/08/09 09:02:32;;;;;;;;;;;;;;;26.77;32.64;97143.16;5043721;28;19959;-76
2022/08/09 09:04:59;;;;;;;;;;;;;;;26.68;33.61;97148.47;5047392;28;19961;-76
2022/08/09 09:07:26;;;;;;;;;;;;;;;26.69;34.72;97152.75;5059644;28;20968;-75
2022/08/09 09:09:53;;;;;;;;;;;;;;;26.76;33.23;97136.97;5043977;28;19964;-76
2022/08/09 09:12:20;;;;;;;;;;;;;;;26.50;31.49;97137.56;5058648;28;19954;-76
2022/08/09 09:14:47;;;;;;;;;;;;;;;26.29;31.96;97147.97;5040425;28;19956;-75
2022/08/09 09:17:13;;;;;;;;;;;;;;;26.39;33.16;97152.31;5044228;28;19962;-76
2022/08/09 09:19:39;;;;;;;;;;;;;;;26.50;33.37;97145.63;5047278;28;20407;-77
2022/08/09 09:22:07;;;;;;;;;;;;;;;26.52;32.28;97143.44;5038168;28;19957;-76
2022/08/09 09:24:34;;;;;;;;;;;;;;;26.65;32.91;97147.19;5045248;28;19963;-76
2022/08/09 09:27:00;;;;;;;;;;;;;;;26.68;31.91;97133.13;5043990;28;19960;-76
2022/08/09 09:29:31;;;;;;;;;;;;;;;26.72;32.71;97141.38;5045571;28;20350;-76
2022/08/09 09:31:57;;;;;;;;;;;;;;;26.75;31.55;97129.22;5023970;28;20400;-77
2022/08/09 09:34:23;;;;;;;;;;;;;;;26.83;32.13;97140.03;5040946;28;19965;-77
2022/08/09 09:36:49;;;;;;;;;;;;;;;26.77;31.94;97135.88;5050290;28;19962;-78
2022/08/09 09:39:17;;;;;;;;;;;;;;;26.74;32.45;97131.09;5038808;28;19960;-77
2022/08/09 09:41:43;;;;;;;;;;;;;;;26.82;31.82;97140.34;5040064;28;19961;-77
2022/08/09 09:44:09;;;;;;;;;;;;;;;26.69;31.67;97145.47;5042742;28;19965;-77
2022/08/09 09:46:38;;;;;;;;;;;;;;;26.63;30.77;97127.88;5049262;28;20004;-76
2022/08/09 09:49:12;;;;;;;;;;;;;;;26.75;31.56;97142.66;5044131;28;19976;-76
2022/08/09 09:51:39;;;;;;;;;;;;;;;26.89;31.79;97133.41;5041969;28;19956;-76
2022/08/09 09:54:05;;;;;;;;;;;;;;;26.69;30.16;97126.66;5042000;28;19964;-75
2022/08/09 09:56:32;;;;;;;;;;;;;;;26.81;31.63;97131.47;5038901;28;19958;-75
2022/08/09 09:58:57;;;;;;;;;;;;;;;26.72;29.26;97117.94;5058184;28;20344;-76
2022/08/09 10:01:23;;;;;;;;;;;;;;;26.73;30.71;97126.81;5047366;28;19966;-75
2022/08/09 10:03:50;;;;;;;;;;;;;;;26.67;31.15;97123.47;5046345;28;20044;-73
2022/08/09 10:06:16;;;;;;;;;;;;;;;26.65;31.71;97133.75;5040080;28;19958;-74
2022/08/09 10:08:43;;;;;;;;;;;;;;;26.56;31.39;97135.53;5046985;28;19977;-74
2022/08/09 10:11:17;;;;;;;;;;;;;;;26.63;32.53;97132.47;5046837;28;19975;-73
2022/08/09 10:13:43;;;;;;;;;;;;;;;26.79;30.97;97127.50;5028069;28;19953;-73
2022/08/09 10:16:09;;;;;;;;;;;;;;;26.80;30.58;97137.97;5045783;28;19959;-73
2022/08/09 10:18:35;;;;;;;;;;;;;;;26.90;31.81;97147.69;5052568;28;20322;-74
2022/08/09 10:21:10;;;;;;;;;;;;;;;26.97;31.57;97139.19;5047874;28;19963;-74
2022/08/09 10:23:36;;;;;;;;;;;;;;;27.01;31.52;97138.25;5040560;28;19959;-73
2022/08/09 10:26:02;;;;;;;;;;;;;;;27.17;31.47;97117.09;5063844;28;20422;-73
2022/08/09 10:28:30;;;;;;;;;;;;;;;27.33;30.69;97117.53;5051681;28;20337;-73
2022/08/09 10:30:57;;;;;;;;;;;;;;;27.17;30.39;97127.88;5049813;28;19959;-74
2022/08/09 10:33:24;;;;;;;;;;;;;;;27.14;30.61;97115.03;5042656;28;20434;-74
2022/08/09 10:35:50;;;;;;;;;;;;;;;27.17;29.97;97111.72;5048426;28;20418;-74
2022/08/09 10:38:16;;;;;;;;;;;;;;;27.22;30.60;97114.31;5048953;28;19963;-74
2022/08/09 10:40:43;;;;;;;;;;;;;;;26.99;30.96;97113.53;5045153;28;19952;-73
2022/08/09 10:43:09;;;;;;;;;;;;;;;27.21;31.09;97114.59;5043562;28;19977;-74
2022/08/09 10:45:35;;;;;;;;;;;;;;;27.43;30.26;97113.78;5047427;28;19971;-74
2022/08/09 10:48:06;;;;;;;;;;;;;;;27.47;30.42;97120.94;5049889;28;19976;-73
2022/08/09 10:53:31;;;;;;;;;;;;;;;27.83;29.53;97116.44;5039630;28;19966;-74
2022/08/09 10:56:14;;;;;;;;;;;;;;;27.84;29.03;97109.94;5047275;28;19958;-74
2022/08/09 10:58:40;;;;;;;;;;;;;;;27.84;29.46;97116.13;5031710;28;19960;-74
2022/08/09 11:01:26;;;;;;;;;;;;;;;28.04;30.32;97122.06;5041229;28;20052;-75
2022/08/09 11:04:07;;;;;;;;;;;;;;;28.21;29.61;97119.41;5031422;28;19958;-74
2022/08/09 11:06:35;;;;;;;;;;;;;;;27.98;29.20;97121.41;5044810;28;19961;-74
2022/08/09 11:09:02;;;;;;;;;;;;;;;27.96;29.46;97120.94;5042370;28;19973;-73
2022/08/09 11:11:47;;;;;;;;;;;;;;;28.09;30.48;97127.31;5049057;28;19958;-73
2022/08/09 11:14:37;;;;;;;;;;;;;;;28.18;29.42;97113.81;5049366;28;19961;-73
2022/08/09 11:17:25;;;;;;;;;;;;;;;28.33;29.82;97110.69;5047037;28;19964;-73
2022/08/09 11:19:57;;;;;;;;;;;;;;;28.54;28.68;97105.47;5048315;28;19955;-73
2022/08/09 11:22:55;;;;;;;;;;;;;;;28.67;29.83;97118.00;5044467;28;19952;-73
2022/08/09 11:25:41;;;;;;;;;;;;;;;28.49;28.21;97109.09;5026558;28;19961;-75
2022/08/09 11:28:25;;;;;;;;;;;;;;;28.26;28.96;97107.66;5032932;28;19990;-74
2022/08/09 11:30:51;;;;;;;;;;;;;;;28.22;29.54;97104.78;5025831;28;19957;-74
2022/08/09 11:33:20;;;;;;;;;;;;;;;28.24;29.05;97107.16;5040468;28;19968;-73
2022/08/09 11:35:52;;;;;;;;;;;;;;;28.32;29.60;97107.16;5051491;28;20319;-73
2022/08/09 11:38:19;;;;;;;;;;;;;;;28.42;28.78;97095.28;5047320;28;19960;-73
2022/08/09 11:40:45;;;;;;;;;;;;;;;28.51;28.64;97104.19;5039304;28;19958;-74
2022/08/09 11:43:15;;;;;;;;;;;;;;;28.39;28.62;97095.13;5048448;28;19980;-73
2022/08/09 11:45:52;;;;;;;;;;;;;;;28.35;29.08;97108.47;5047296;28;19968;-73
2022/08/09 11:48:20;;;;;;;;;;;;;;;28.37;29.36;97102.72;5046358;28;19976;-73
2022/08/09 11:51:00;;;;;;;;;;;;;;;28.56;29.21;97099.72;5041777;28;19956;-72
2022/08/09 11:53:27;;;;;;;;;;;;;;;28.87;29.88;97096.84;5044584;28;19957;-72
2022/08/09 11:55:55;;;;;;;;;;;;;;;28.93;28.71;97096.34;5052258;28;19966;-73
2022/08/09 11:58:22;;;;;;;;;;;;;;;29.07;28.84;97090.75;5044940;28;19961;-73
2022/08/09 12:01:07;;;;;;;;;;;;;;;29.04;27.43;97088.72;5045622;28;19965;-73
2022/08/09 12:03:33;;;;;;;;;;;;;;;29.25;28.62;97080.72;5028990;28;19960;-73
2022/08/09 12:06:01;;;;;;;;;;;;;;;29.56;27.92;97079.63;5044126;28;19965;-73
2022/08/09 12:08:27;;;;;;;;;;;;;;;29.52;28.02;97081.38;5046588;28;19970;-72
2022/08/09 12:10:55;;;;;;;;;;;;;;;29.60;27.72;97077.06;5047492;28;19960;-72
2022/08/09 12:13:37;;;;;;;;;;;;;;;29.53;26.97;97075.66;5043947;28;19955;-74
2022/08/09 12:16:04;;;;;;;;;;;;;;;29.68;28.40;97089.75;5046371;28;20305;-73
2022/08/09 12:18:30;;;;;;;;;;;;;;;29.84;27.50;97071.88;5045289;28;19963;-73
2022/08/09 12:20:57;;;;;;;;;;;;;;;29.97;27.47;97075.44;5044456;28;19961;-73
2022/08/09 12:23:23;;;;;;;;;;;;;;;30.08;27.44;97068.50;5050514;28;19962;-73
2022/08/09 12:25:50;;;;;;;;;;;;;;;30.19;27.67;97077.00;5026477;28;19950;-73
2022/08/09 12:28:17;;;;;;;;;;;;;;;30.24;27.12;97065.19;5052709;28;19982;-73
2022/08/09 12:30:43;;;;;;;;;;;;;;;30.19;26.42;97060.00;5044454;28;19963;-77
2022/08/09 12:33:10;;;;;;;;;;;;;;;30.13;26.84;97068.31;5050415;28;20040;-73
2022/08/09 12:35:36;;;;;;;;;;;;;;;30.10;24.83;97057.34;5045023;28;19971;-73
2022/08/09 12:38:18;;;;;;;;;;;;;;;30.13;25.60;97068.31;5041152;28;19960;-74
2022/08/09 12:40:45;;;;;;;;;;;;;;;29.83;24.42;97069.47;5042290;28;20426;-73
2022/08/09 12:43:12;;;;;;;;;;;;;;;29.45;25.42;97081.91;5043235;28;20099;-74
2022/08/09 12:45:39;;;;;;;;;;;;;;;29.24;25.35;97068.31;5046014;28;19958;-74
2022/08/09 12:48:08;;;;;;;;;;;;;;;29.27;24.68;97075.78;5046222;28;19977;-74
2022/08/09 12:50:35;;;;;;;;;;;;;;;29.35;25.90;97074.94;5027079;28;19960;-74
2022/08/09 12:53:01;;;;;;;;;;;;;;;29.57;26.22;97069.59;5042173;28;19976;-74
2022/08/09 12:55:28;;;;;;;;;;;;;;;29.62;23.56;97062.09;5042068;28;19954;-73